• Join FlightAware (Why Join?)
  • Login
  • US Flag 
09:11AM EDT


 

Airport Tracker/Info


-or-


 

Live Flight TrackerFlight Track Log ✈ N3746H ✈ 16-Apr-2013 ✈ MMMX / MEX - KATL

Flight Track Log - Related Links

Times and Time Zones

All times are in EDT time to prevent confusion due to time zone crossing. See the N3746H flight status page for this flight to view local times or setup timezone preferences in your user account.

Time Position Orientation Groundspeed Altitude Reporting Facility
EDT Latitude Longitude Course Direction KTS MPH feet Rate Location/Type
10:49AM 19.5550 -99.0146 25° Northeast  Level FlightAware Approximate
10:50AM 19.6737 -98.9570 25° Northeast  Level FlightAware Approximate
10:51AM 19.7939 -98.8986 25° Northeast  Level FlightAware Approximate
10:52AM 19.9141 -98.8401 25° Northeast  Level FlightAware Approximate
10:53AM 20.0343 -98.7815 25° Northeast  Level FlightAware Approximate
10:54AM 20.1545 -98.7228 25° Northeast  Level FlightAware Approximate
10:55AM 20.2747 -98.6640 25° Northeast  Level FlightAware Approximate
10:56AM 20.3948 -98.6052 25° Northeast  Level FlightAware Approximate
10:57AM 20.5149 -98.5462 25° Northeast  Level FlightAware Approximate
10:58AM 20.6350 -98.4872 25° Northeast  Level FlightAware Approximate
10:59AM 20.7551 -98.4280 25° Northeast  Level FlightAware Approximate
11:00AM 20.8752 -98.3688 25° Northeast  Level FlightAware Approximate
11:01AM 20.9952 -98.3094 25° Northeast  Level FlightAware Approximate
11:02AM 21.1152 -98.2500 25° Northeast  Level FlightAware Approximate
11:03AM 21.2352 -98.1905 25° Northeast  Level FlightAware Approximate
11:04AM 21.3409 -98.1380 25° Northeast  Level FlightAware Approximate
11:05AM 21.4610 -98.0788 25° Northeast  Level FlightAware Approximate
11:06AM 21.5811 -98.0193 25° Northeast  Level FlightAware Approximate
11:07AM 21.7012 -97.9598 25° Northeast  Level FlightAware Approximate
11:08AM 21.8213 -97.9003 25° Northeast  Level FlightAware Approximate
11:09AM 21.9413 -97.8406 25° Northeast  Level FlightAware Approximate
11:10AM 22.0614 -97.7807 25° Northeast  Level FlightAware Approximate
11:11AM 22.1814 -97.7208 25° Northeast  Level FlightAware Approximate
11:12AM 22.3013 -97.6608 25° Northeast  Level FlightAware Approximate
11:13AM 22.4213 -97.6007 25° Northeast  Level FlightAware Approximate
11:14AM 22.5412 -97.5405 25° Northeast  Level FlightAware Approximate
11:15AM 22.6611 -97.4802 25° Northeast  Level FlightAware Approximate
11:16AM 22.7810 -97.4198 25° Northeast  Level FlightAware Approximate
11:17AM 22.9009 -97.3593 25° Northeast  Level FlightAware Approximate
11:18AM 23.0232 -97.2974 25° Northeast  Level FlightAware Approximate
11:19AM 23.1455 -97.2356 25° Northeast  Level FlightAware Approximate
11:20AM 23.2680 -97.1743 25° Northeast  Level FlightAware Approximate
11:21AM 23.3829 -97.0977 32° Northeast  Level FlightAware Approximate
11:22AM 23.4967 -97.0188 32° Northeast  Level FlightAware Approximate
11:23AM 23.6105 -96.9397 32° Northeast  Level FlightAware Approximate
11:24AM 23.7242 -96.8605 33° Northeast  Level FlightAware Approximate
11:25AM 23.8378 -96.7811 33° Northeast  Level FlightAware Approximate
11:26AM 23.9514 -96.7016 33° Northeast  Level FlightAware Approximate
11:27AM 24.0650 -96.6220 33° Northeast  Level FlightAware Approximate
11:28AM 24.1786 -96.5422 33° Northeast  Level FlightAware Approximate
11:29AM 24.2921 -96.4623 33° Northeast  Level FlightAware Approximate
11:30AM 24.4055 -96.3823 33° Northeast  Level FlightAware Approximate
11:31AM 24.5189 -96.3021 33° Northeast  Level FlightAware Approximate
11:32AM 24.6323 -96.2217 33° Northeast  Level FlightAware Approximate
11:33AM 24.7456 -96.1413 33° Northeast  Level FlightAware Approximate
11:34AM 24.8589 -96.0606 33° Northeast  Level FlightAware Approximate
11:35AM 24.9722 -95.9799 33° Northeast  Level FlightAware Approximate
11:36AM 25.0854 -95.8989 33° Northeast  Level FlightAware Approximate
11:37AM 25.1985 -95.8179 33° Northeast  Level FlightAware Approximate
11:38AM 25.3116 -95.7366 33° Northeast  Level FlightAware Approximate
11:38AM 25.0606 -95.9319 45° Northeast 509 586 37,000  Level Houston Center
11:39AM 25.4247 -95.6553 33° Northeast  Level FlightAware Approximate
11:39AM 25.1778 -95.8478 33° Northeast 507 583 37,000  Level Houston Center
11:40AM 25.5377 -95.5737 33° Northeast  Level FlightAware Approximate
11:40AM 25.2914 -95.7669 33° Northeast 503 579 36,900  Level Houston Center
11:41AM 25.6447 -95.4840 46° Northeast  Level FlightAware Approximate
11:41AM 25.4092 -95.6814 33° Northeast 502 578 37,000  Level Houston Center
11:42AM 25.7389 -95.3771 45° Northeast  Level FlightAware Approximate
11:42AM 25.5522 -95.5775 33° Northeast 504 580 37,000  Level Houston Center
11:43AM 25.8341 -95.2710 45° Northeast  Level FlightAware Approximate
11:43AM 25.6686 -95.4806 37° Northeast 511 588 37,000  Level Houston Center
11:44AM 25.7694 -95.3700 45° Northeast 512 589 37,000  Level Houston Center
11:45AM 25.8689 -95.2603 45° Northeast 508 585 37,000  Level Houston Center
11:46AM 25.9847 -95.1308 45° Northeast 513 590 37,000 -60 Level Houston Center
11:48AM 26.0844 -95.0211 45° Northeast 509 586 36,900  Descending Houston Center
11:49AM 26.1831 -94.9092 46° Northeast 507 583 37,000  Climbing Houston Center
11:50AM 26.2842 -94.7972 45° Northeast 509 586 36,900  Descending Houston Center
11:51AM 26.3825 -94.6858 45° Northeast 508 585 37,000  Climbing Houston Center
11:52AM 26.4953 -94.5600 45° Northeast 508 585 37,000  Level Houston Center
11:53AM 26.5956 -94.4472 45° Northeast 510 587 37,000  Level Houston Center
11:54AM 26.6947 -94.3350 45° Northeast 509 586 37,000  Level Houston Center
11:55AM 26.7956 -94.2208 45° Northeast 513 590 37,000  Level Houston Center
11:56AM 26.9131 -94.0883 45° Northeast 507 583 37,000  Level Houston Center
11:57AM 27.0125 -93.9739 46° Northeast 509 586 37,000  Level Houston Center
11:58AM 27.1122 -93.8603 45° Northeast 510 587 37,000  Level Houston Center
11:59AM 27.2114 -93.7456 46° Northeast 512 589 37,000  Level Houston Center
12:00PM 27.3100 -93.6322 46° Northeast 510 587 37,000  Level Houston Center
12:01PM 27.4269 -93.4975 46° Northeast 506 582 37,000  Level Houston Center
12:02PM 27.5281 -93.3803 46° Northeast 511 588 37,000  Level Houston Center
12:03PM 27.6244 -93.2611 48° Northeast 514 592 37,000  Level Houston Center
12:04PM 27.7178 -93.1403 49° Northeast 515 593 37,000  Level Houston Center
12:05PM 27.8092 -93.0211 49° Northeast 512 589 37,000  Level Houston Center
12:06PM 27.8997 -92.9025 49° Northeast 508 585 37,000  Level Houston Center
12:07PM 28.0056 -92.7636 49° Northeast 500 575 37,000  Level Houston Center
12:08PM 28.0967 -92.6431 49° Northeast 502 578 37,000  Level Houston Center
12:09PM 28.1875 -92.5233 49° Northeast 504 580 37,000  Level Houston Center
12:10PM 28.2781 -92.4025 50° Northeast 503 579 37,000 -60 Level Houston Center
12:11PM 28.3733 -92.2769 49° Northeast 508 585 36,900 -60 Descending Houston Center
12:12PM 28.4658 -92.1556 49° Northeast 509 586 36,900  Level Houston Center
12:13PM 28.5750 -92.0086 50° Northeast 507 583 37,000  Climbing Houston Center
12:14PM 28.6639 -91.8861 50° Northeast 504 580 36,900  Descending Houston Center
12:15PM 28.7536 -91.7661 50° Northeast 501 577 37,000  Climbing Houston Center
12:17PM 28.8450 -91.6456 49° Northeast 501 577 37,000 -60 Level Houston Center
12:18PM 28.9361 -91.5283 48° Northeast 498 573 36,900 -60 Descending Houston Center
12:19PM 29.0442 -91.3867 49° Northeast 495 570 36,900  Level Houston Center
12:20PM 29.1317 -91.2642 51° Northeast 496 571 37,000  Climbing Houston Center
12:21PM 29.2214 -91.1442 49° Northeast 497 572 37,000  Level Houston Center
12:22PM 29.3089 -91.0214 51° Northeast 498 573 37,000  Level Houston Center
12:23PM 29.3986 -90.8978 50° Northeast 500 575 37,000  Level Houston Center
12:24PM 29.4861 -90.7744 51° Northeast 501 577 37,000 -60 Level Houston Center
12:25PM 29.5933 -90.6267 50° Northeast 502 578 36,900 -60 Descending Houston Center
12:26PM 29.6822 -90.5039 50° Northeast 501 577 36,900  Level Houston Center
12:27PM 29.7703 -90.3806 51° Northeast 499 574 36,900  Level Houston Center
12:28PM 29.8572 -90.2569 51° Northeast 498 573 37,000  Climbing Houston Center
12:29PM 29.9450 -90.1325 51° Northeast 501 577 37,000  Level Houston Center
12:30PM 30.0483 -89.9828 51° Northeast 499 574 37,000 -60 Level Houston Center
12:31PM 30.1347 -89.8575 51° Northeast 501 577 36,900  Descending Houston Center
12:32PM 30.2194 -89.7322 52° Northeast 503 579 37,000  Climbing Houston Center
12:33PM 30.3056 -89.6089 51° Northeast 509 586 37,000 -60 Level Houston Center
12:34PM 30.4219 -89.4814 43° Northeast 491 565 36,900  Descending Houston Center
12:35PM 30.5464 -89.4342 18° North 475 547 37,000  Climbing Houston Center
12:36PM 30.6728 -89.3883 17° North 477 549 37,000  Level Houston Center
12:37PM 30.7983 -89.3433 17° North 474 545 37,000  Level Houston Center
12:38PM 30.9242 -89.2986 17° North 475 547 37,000  Level Houston Center
12:39PM 31.0744 -89.2436 17° North 472 543 37,000 -60 Level Houston Center
12:40PM 31.1839 -89.1525 35° Northeast 491 565 36,900  Descending Houston Center
12:41PM 31.2442 -89.0089 64° Northeast 495 570 37,000  Climbing Houston Center
12:42PM 31.2767 -88.8550 76° East 501 577 37,000  Level Houston Center
12:43PM 31.3086 -88.6950 77° East 502 578 37,000  Level Houston Center
12:44PM 31.3478 -88.5050 76° East 498 573 37,000  Level Houston Center
12:45PM 31.3806 -88.3447 76° East 500 575 37,000  Level Houston Center
12:47PM 31.4119 -88.1847 77° East 483 556 37,000  Level Atlanta Center
12:48PM 31.4444 -88.0281 76° East 490 564 37,000  Level Atlanta Center
12:49PM 31.4869 -87.8717 72° East 490 564 37,000  Level Atlanta Center
12:50PM 31.5617 -87.7408 56° Northeast 485 558 37,000 -60 Level Atlanta Center
12:51PM 31.6428 -87.6100 54° Northeast 480 552 36,900 -600 Descending Atlanta Center
12:52PM 31.7194 -87.4811 55° Northeast 480 552 35,900 -960 Descending Atlanta Center
12:53PM 31.8003 -87.3522 54° Northeast 485 558 35,000 -900 Descending Atlanta Center
12:54PM 31.8725 -87.2206 57° Northeast 485 558 34,100 -960 Descending Atlanta Center
12:55PM 31.9511 -87.0886 55° Northeast 485 558 33,100 -960 Descending Atlanta Center
12:56PM 32.0314 -86.9567 54° Northeast 485 558 32,200 -960 Descending Atlanta Center
12:57PM 32.1117 -86.8244 54° Northeast 485 558 31,200 -1,020 Descending Atlanta Center
12:58PM 32.1981 -86.6922 52° Northeast 490 564 30,200 -1,020 Descending Atlanta Center
12:59PM 32.2761 -86.5569 56° Northeast 490 564 29,200 -600 Descending Atlanta Center
01:00PM 32.3539 -86.4214 56° Northeast 490 564 29,000 -120 Descending Atlanta Center
01:01PM 32.4233 -86.2831 59° Northeast 490 564 29,000  Level Atlanta Center
01:02PM 32.5050 -86.1472 54° Northeast 496 571 29,000 -180 Level Atlanta Center
01:03PM 32.5867 -86.0086 55° Northeast 502 578 28,700 -600 Descending Atlanta Center
01:04PM 32.6681 -85.8722 55° Northeast 502 578 27,800 -1,260 Descending Atlanta Center
01:05PM 32.7472 -85.7356 55° Northeast 502 578 26,200 -2,160 Descending Atlanta Center
01:06PM 32.8222 -85.5986 57° Northeast 502 578 23,500 -2,760 Descending Atlanta Center
01:07PM 32.8925 -85.4811 55° Northeast 472 543 20,700 -2,700 Descending Atlanta Center
01:08PM 32.9564 -85.3733 55° Northeast 429 494 18,200 -2,220 Descending Atlanta Center
01:09PM 33.0136 -85.2675 57° Northeast 397 457 16,300 -2,100 Descending Atlanta Center
01:10PM 33.0836 -85.1644 51° Northeast 365 420 14,100 -2,040 Descending Atlanta Center
01:11PM 33.1492 -85.0733 49° Northeast 355 409 12,300 -1,080 Descending Atlanta Center
01:12PM 33.2103 -84.9947 47° Northeast 335 386 12,000 -900 Descending Atlanta Center
01:13PM 33.2650 -84.9233 47° Northeast 308 354 10,600 -1,560 Descending Atlanta Center
01:14PM 33.3219 -84.8567 44° Northeast 290 334 8,900 -2,400 Descending Atlanta Center
01:15PM 33.3869 -84.8075 32° Northeast 271 312 5,800 -2,940 Descending Atlanta Center
01:15PM 33.4167 -84.7833 34° Northeast 269 310 4,500 -1,200 Descending Atlanta TRACON
01:16PM 33.4833 -84.7333 32° Northeast 249 287 4,000 -720 Descending Atlanta TRACON
01:17PM 33.5333 -84.6833 40° Northeast 237 273 3,000 -480 Descending Atlanta TRACON
01:18PM 33.5833 -84.6500 29° Northeast 228 262 3,000  Level Atlanta TRACON